Time;durP1;ratioP1;P1;durP2;ratioP2;P2;SDS_P1;SDS_P2;PMS_P1;PMS_P2;Temp;Humidity;BMP_temperature;BMP_pressure;BME280_temperature;BME280_humidity;BME280_pressure;Samples;Min_cycle;Max_cycle;Signal;HPM_P1;HPM_P2
2023/03/28 00:00:42;;;;;;;0.10;0.10;;;21.80;31.70;;;;;;5094094;28;20070;-57
2023/03/28 00:03:13;;;;;;;0.30;0.20;;;21.80;31.60;;;;;;5094208;28;20040;-58
2023/03/28 00:05:41;;;;;;;0.10;0.10;;;21.80;31.60;;;;;;5093423;28;20112;-57
2023/03/28 00:08:08;;;;;;;0.20;0.13;;;21.80;31.70;;;;;;5093992;28;20075;-57
2023/03/28 00:10:35;;;;;;;0.20;0.20;;;21.80;31.70;;;;;;5094027;28;20048;-57
2023/03/28 00:13:03;;;;;;;0.30;0.08;;;21.70;31.60;;;;;;5093990;28;20048;-57
2023/03/28 00:15:30;;;;;;;0.45;0.22;;;21.70;31.60;;;;;;5091536;28;20079;-57
2023/03/28 00:18:00;;;;;;;0.30;0.20;;;21.70;31.50;;;;;;5082695;28;20117;-57
2023/03/28 00:20:28;;;;;;;0.47;0.17;;;21.70;31.60;;;;;;5073649;28;20106;-58
2023/03/28 00:22:55;;;;;;;1.75;0.10;;;21.70;31.70;;;;;;5073424;28;20059;-58
2023/03/28 00:25:22;;;;;;;0.10;0.10;;;21.70;31.60;;;;;;5073705;28;20488;-57
2023/03/28 00:27:50;;;;;;;0.10;0.10;;;21.70;31.60;;;;;;5087690;28;20464;-57
2023/03/28 00:30:17;;;;;;;0.57;0.20;;;21.70;31.60;;;;;;5094021;28;20055;-57
2023/03/28 00:32:44;;;;;;;0.45;0.20;;;21.70;31.60;;;;;;5093652;28;20076;-57
2023/03/28 00:35:12;;;;;;;0.40;0.10;;;21.80;31.70;;;;;;5094081;28;20048;-57
2023/03/28 00:37:40;;;;;;;0.28;0.28;;;21.70;31.60;;;;;;5093497;28;20435;-57
2023/03/28 00:40:08;;;;;;;0.60;0.20;;;21.70;31.60;;;;;;5093924;28;20078;-57
2023/03/28 00:42:41;;;;;;;0.38;0.13;;;21.70;31.70;;;;;;5093871;28;20114;-57
2023/03/28 00:45:10;;;;;;;0.88;0.22;;;21.70;31.70;;;;;;5093529;28;20407;-57
2023/03/28 00:47:48;;;;;;;0.20;0.20;;;21.70;31.70;;;;;;5093223;28;20055;-57
2023/03/28 00:50:22;;;;;;;0.30;0.20;;;21.70;31.80;;;;;;5093054;28;20047;-57
2023/03/28 00:52:57;;;;;;;0.20;0.20;;;21.70;31.80;;;;;;5093264;28;20051;-57
2023/03/28 00:55:30;;;;;;;0.40;0.15;;;21.70;31.90;;;;;;5093657;28;20047;-57
2023/03/28 00:57:58;;;;;;;0.15;0.15;;;21.70;31.80;;;;;;5091955;28;20066;-57
2023/03/28 01:00:27;;;;;;;0.10;0.10;;;21.70;31.90;;;;;;5092813;28;20094;-57
2023/03/28 01:02:57;;;;;;;0.30;0.10;;;21.70;31.80;;;;;;5093061;28;20131;-57
2023/03/28 01:05:31;;;;;;;0.45;0.20;;;21.70;31.80;;;;;;5093556;28;20378;-58
2023/03/28 01:08:18;;;;;;;0.22;0.10;;;21.80;31.90;;;;;;5093494;28;20048;-57
2023/03/28 01:10:46;;;;;;;0.20;0.20;;;21.70;31.90;;;;;;5093148;28;20063;-57
2023/03/28 01:13:18;;;;;;;0.20;0.00;;;21.70;31.90;;;;;;5085786;28;20041;-57
2023/03/28 01:15:48;;;;;;;0.15;0.15;;;21.70;31.90;;;;;;5074256;28;20055;-57
2023/03/28 01:18:21;;;;;;;0.20;0.20;;;21.70;31.90;;;;;;5093391;28;20120;-57
2023/03/28 01:21:30;;;;;;;0.20;0.10;;;21.70;31.90;;;;;;5093033;28;20139;-57
2023/03/28 01:24:30;;;;;;;0.55;0.30;;;21.70;31.90;;;;;;5092138;28;20044;-57
2023/03/28 01:27:33;;;;;;;0.10;0.10;;;21.70;32.00;;;;;;5092645;28;20048;-57
2023/03/28 01:30:30;;;;;;;0.03;0.03;;;21.70;32.00;;;;;;5092803;28;20052;-57
2023/03/28 01:33:29;;;;;;;0.10;0.10;;;21.70;32.00;;;;;;5092842;28;20048;-57
2023/03/28 01:36:18;;;;;;;0.10;0.10;;;21.70;32.00;;;;;;5072732;28;20071;-57
2023/03/28 01:39:33;;;;;;;0.10;0.10;;;21.70;32.00;;;;;;5073323;28;20098;-57
2023/03/28 01:42:26;;;;;;;0.10;0.10;;;21.80;32.10;;;;;;5072577;28;20545;-57
2023/03/28 01:45:09;;;;;;;0.10;0.10;;;21.70;32.10;;;;;;5072693;28;20281;-57
2023/03/28 01:47:44;;;;;;;0.00;0.00;;;21.70;32.10;;;;;;5072426;28;20053;-57
2023/03/28 01:50:35;;;;;;;0.10;0.00;;;21.70;32.10;;;;;;5072949;28;20056;-57
2023/03/28 01:53:13;;;;;;;0.13;0.00;;;21.70;32.10;;;;;;5072559;28;20044;-57
2023/03/28 01:56:02;;;;;;;0.05;0.00;;;21.70;32.10;;;;;;5072907;28;20056;-57
2023/03/28 01:58:45;;;;;;;0.40;0.00;;;21.70;32.10;;;;;;5072193;28;20048;-57
2023/03/28 02:01:26;;;;;;;0.75;0.10;;;21.70;32.20;;;;;;5072850;28;20052;-57
2023/03/28 02:03:59;;;;;;;0.55;0.13;;;21.70;32.20;;;;;;5076247;28;20131;-57
2023/03/28 02:06:29;;;;;;;0.10;0.10;;;21.70;32.10;;;;;;5075664;28;20139;-57
2023/03/28 02:08:57;;;;;;;0.10;0.10;;;21.70;32.20;;;;;;5076119;28;20083;-57
2023/03/28 02:11:27;;;;;;;0.10;0.10;;;21.70;32.20;;;;;;5074364;28;20050;-57
2023/03/28 02:14:00;;;;;;;0.00;0.00;;;21.70;32.20;;;;;;5076444;28;20378;-57
2023/03/28 02:16:30;;;;;;;0.40;0.10;;;21.70;32.10;;;;;;5075414;28;20052;-57
2023/03/28 02:18:59;;;;;;;0.20;0.20;;;21.70;32.10;;;;;;5076356;28;20143;-57
2023/03/28 02:21:49;;;;;;;0.10;0.03;;;21.70;32.10;;;;;;5075776;28;20044;-57
2023/03/28 02:24:16;;;;;;;0.05;0.05;;;21.70;32.10;;;;;;5075869;28;20053;-58
2023/03/28 02:26:43;;;;;;;0.32;0.17;;;21.70;32.10;;;;;;5075738;28;20131;-57
2023/03/28 02:29:15;;;;;;;0.30;0.10;;;21.70;32.10;;;;;;5075864;28;20136;-58
2023/03/28 02:31:42;;;;;;;0.00;0.00;;;21.70;32.10;;;;;;5075635;28;20055;-57
2023/03/28 02:34:10;;;;;;;0.17;0.10;;;21.70;32.10;;;;;;5075305;28;20053;-57
2023/03/28 02:37:02;;;;;;;0.00;0.00;;;21.70;32.10;;;;;;5074372;28;20045;-63
2023/03/28 02:39:56;;;;;;;0.25;0.13;;;21.70;32.10;;;;;;5091091;28;20040;-58
2023/03/28 02:42:49;;;;;;;0.20;0.03;;;21.70;32.10;;;;;;5075821;28;20052;-61
2023/03/28 02:45:50;;;;;;;0.08;0.00;;;21.70;32.10;;;;;;5080445;28;20060;-58
2023/03/28 02:48:35;;;;;;;0.10;0.00;;;21.70;32.20;;;;;;5095654;28;20054;-57
2023/03/28 02:51:30;;;;;;;0.10;0.10;;;21.60;32.10;;;;;;5095617;28;20048;-60
2023/03/28 02:54:08;;;;;;;0.43;0.10;;;21.60;32.10;;;;;;5095782;28;20043;-58
2023/03/28 02:56:59;;;;;;;0.13;0.10;;;21.60;32.10;;;;;;5095222;28;20044;-64
2023/03/28 02:59:36;;;;;;;0.43;0.00;;;21.60;32.10;;;;;;5094665;28;20055;-64
2023/03/28 03:02:07;;;;;;;0.10;0.10;;;21.70;32.20;;;;;;5094927;28;20044;-63
2023/03/28 03:04:34;;;;;;;0.47;0.10;;;21.70;32.20;;;;;;5095410;28;20047;-59
2023/03/28 03:07:01;;;;;;;0.10;0.10;;;21.60;32.20;;;;;;5095229;28;20044;-68
2023/03/28 03:09:28;;;;;;;0.10;0.05;;;21.70;32.20;;;;;;5095065;28;20052;-63
2023/03/28 03:11:55;;;;;;;0.30;0.10;;;21.60;32.10;;;;;;5095084;28;20040;-68
2023/03/28 03:14:22;;;;;;;0.00;0.00;;;21.60;32.20;;;;;;5094439;28;20044;-61
2023/03/28 03:16:50;;;;;;;0.15;0.00;;;21.70;32.20;;;;;;5094781;28;20048;-67
2023/03/28 03:19:18;;;;;;;0.10;0.08;;;21.60;32.10;;;;;;5095093;28;20403;-58
2023/03/28 03:21:45;;;;;;;0.10;0.10;;;21.70;32.20;;;;;;5094775;28;20047;-61
2023/03/28 03:24:13;;;;;;;0.00;0.00;;;21.70;32.20;;;;;;5095030;28;20052;-57
2023/03/28 03:26:40;;;;;;;0.10;0.10;;;21.70;32.20;;;;;;5094468;28;20557;-57
2023/03/28 03:29:08;;;;;;;0.70;0.00;;;21.60;32.10;;;;;;5075132;28;20063;-57
2023/03/28 03:31:35;;;;;;;0.00;0.00;;;21.60;32.20;;;;;;5074287;28;20048;-58
2023/03/28 03:34:02;;;;;;;0.20;0.20;;;21.70;32.20;;;;;;5074179;28;20056;-57
2023/03/28 03:36:30;;;;;;;0.10;0.00;;;21.60;32.10;;;;;;5088073;28;20416;-58
2023/03/28 03:38:58;;;;;;;0.15;0.03;;;21.60;32.10;;;;;;5094018;28;20051;-58
2023/03/28 03:41:25;;;;;;;0.47;0.10;;;21.60;32.10;;;;;;5094457;28;20415;-59
2023/03/28 03:43:52;;;;;;;0.20;0.10;;;21.60;32.10;;;;;;5094617;28;20044;-57
2023/03/28 03:46:19;;;;;;;0.20;0.15;;;21.60;32.20;;;;;;5094464;28;20114;-57
2023/03/28 03:48:46;;;;;;;0.10;0.10;;;21.60;32.20;;;;;;5094315;28;20127;-57
2023/03/28 03:51:17;;;;;;;0.20;0.20;;;21.60;32.20;;;;;;5093265;28;20097;-57
2023/03/28 03:53:45;;;;;;;0.03;0.03;;;21.60;32.20;;;;;;5094392;28;20131;-57
2023/03/28 03:56:12;;;;;;;0.10;0.10;;;21.60;32.10;;;;;;5093981;28;20105;-57
2023/03/28 03:58:39;;;;;;;0.10;0.10;;;21.60;32.20;;;;;;5089476;28;20052;-58
2023/03/28 04:01:12;;;;;;;0.00;0.00;;;21.60;32.10;;;;;;5085559;28;20044;-58
2023/03/28 04:03:41;;;;;;;0.10;0.05;;;21.60;32.10;;;;;;5084932;28;20040;-57
2023/03/28 04:06:08;;;;;;;0.00;0.00;;;21.60;32.10;;;;;;5077233;28;20062;-57
2023/03/28 04:08:35;;;;;;;0.40;0.10;;;21.60;32.00;;;;;;5079523;28;20040;-57
2023/03/28 04:11:03;;;;;;;0.00;0.00;;;21.60;32.10;;;;;;5079821;28;20066;-57
2023/03/28 04:13:30;;;;;;;0.20;0.10;;;21.60;32.00;;;;;;5076548;28;20040;-58
2023/03/28 04:15:57;;;;;;;0.08;0.00;;;21.60;32.00;;;;;;5085806;28;20561;-57
2023/03/28 04:18:24;;;;;;;0.13;0.10;;;21.50;32.00;;;;;;5073485;28;20044;-57
2023/03/28 04:20:56;;;;;;;0.10;0.10;;;21.60;32.00;;;;;;5075518;28;20472;-57
2023/03/28 04:23:24;;;;;;;0.80;0.10;;;21.60;32.00;;;;;;5081563;28;20046;-58
2023/03/28 04:25:56;;;;;;;0.10;0.10;;;21.60;32.00;;;;;;5085079;28;20055;-57
2023/03/28 04:28:24;;;;;;;0.00;0.00;;;21.60;32.00;;;;;;5086096;28;20076;-57
2023/03/28 04:30:53;;;;;;;0.43;0.10;;;21.50;31.90;;;;;;5073564;28;20051;-57
2023/03/28 04:33:24;;;;;;;0.13;0.13;;;21.50;31.90;;;;;;5072560;28;20041;-57
2023/03/28 04:35:58;;;;;;;0.20;0.10;;;21.50;31.80;;;;;;5073488;28;20048;-57
2023/03/28 04:38:31;;;;;;;0.25;0.25;;;21.50;31.60;;;;;;5096257;28;20146;-57
2023/03/28 04:40:58;;;;;;;0.38;0.20;;;21.40;31.40;;;;;;5082781;28;20525;-57
2023/03/28 04:43:27;;;;;;;0.20;0.10;;;21.40;31.30;;;;;;5089265;28;20446;-57
2023/03/28 04:45:55;;;;;;;0.10;0.10;;;21.40;31.40;;;;;;5093317;28;20051;-57
2023/03/28 04:48:23;;;;;;;1.65;0.20;;;21.40;31.30;;;;;;5091219;28;20055;-57
2023/03/28 04:50:50;;;;;;;0.10;0.10;;;21.40;31.30;;;;;;5093193;28;20044;-57
2023/03/28 04:53:18;;;;;;;0.75;0.10;;;21.40;31.30;;;;;;5087150;28;20064;-57
2023/03/28 04:55:49;;;;;;;0.20;0.10;;;21.40;31.20;;;;;;5089853;28;20052;-57
2023/03/28 04:58:18;;;;;;;0.10;0.10;;;21.40;31.10;;;;;;5083147;28;20044;-57
2023/03/28 05:00:48;;;;;;;0.25;0.20;;;21.40;31.10;;;;;;5077839;28;20051;-57
2023/03/28 05:03:20;;;;;;;1.02;0.65;;;21.40;31.10;;;;;;5087625;28;20047;-57
2023/03/28 05:05:50;;;;;;;0.10;0.10;;;21.40;30.90;;;;;;5092318;28;20163;-57
2023/03/28 05:08:21;;;;;;;0.17;0.17;;;21.40;30.80;;;;;;5091147;28;20075;-57
2023/03/28 05:10:48;;;;;;;;;;;21.50;31.50;;;;;;5086784;28;20052;-57
2023/03/28 05:13:16;;;;;;;0.10;0.10;;;21.50;30.90;;;;;;5081139;28;19928;-57
2023/03/28 05:15:45;;;;;;;0.30;0.10;;;21.50;31.00;;;;;;5086600;28;20139;-57
2023/03/28 05:18:13;;;;;;;0.53;0.43;;;21.60;31.10;;;;;;5089603;28;20442;-57
2023/03/28 05:20:40;;;;;;;0.10;0.10;;;21.60;31.10;;;;;;5088825;28;20048;-60
2023/03/28 05:23:08;;;;;;;0.10;0.10;;;21.60;31.00;;;;;;5084699;28;20050;-57
2023/03/28 05:25:36;;;;;;;0.28;0.10;;;21.60;31.60;;;;;;5081998;28;20058;-57
2023/03/28 05:28:04;;;;;;;0.17;0.10;;;21.70;31.00;;;;;;5082403;28;20076;-57
2023/03/28 05:30:31;;;;;;;0.10;0.10;;;21.70;30.90;;;;;;5081259;28;20048;-57
2023/03/28 05:32:59;;;;;;;0.30;0.10;;;21.70;30.90;;;;;;5080909;28;20044;-56
2023/03/28 05:35:26;;;;;;;0.10;0.10;;;21.80;31.00;;;;;;5085768;28;20051;-56
2023/03/28 05:37:53;;;;;;;0.20;0.20;;;21.80;30.90;;;;;;5086706;28;20400;-56
2023/03/28 05:40:22;;;;;;;0.90;0.10;;;21.80;30.80;;;;;;5075709;28;20058;-57
2023/03/28 05:42:49;;;;;;;0.63;0.10;;;21.90;30.80;;;;;;5076707;28;20048;-58
2023/03/28 05:45:17;;;;;;;0.32;0.30;;;21.90;30.80;;;;;;5082925;28;20044;-58
2023/03/28 05:47:44;;;;;;;2.03;0.30;;;21.90;30.70;;;;;;5076832;28;20500;-58
2023/03/28 05:50:11;;;;;;;1.73;0.43;;;22.00;30.90;;;;;;5080525;28;20067;-57
2023/03/28 05:52:39;;;;;;;0.63;0.17;;;22.10;31.20;;;;;;5081559;28;20051;-57
2023/03/28 05:55:07;;;;;;;1.90;0.20;;;22.10;31.30;;;;;;5083047;28;20056;-56
2023/03/28 05:57:34;;;;;;;0.30;0.30;;;22.20;31.30;;;;;;5082413;28;20085;-56
2023/03/28 06:00:09;;;;;;;0.30;0.30;;;22.20;31.20;;;;;;5079774;28;20051;-55
2023/03/28 06:02:36;;;;;;;2.63;0.32;;;22.20;31.00;;;;;;5083630;28;20054;-53
2023/03/28 06:05:03;;;;;;;0.82;0.32;;;22.30;31.00;;;;;;5083456;28;20052;-57
2023/03/28 06:07:31;;;;;;;0.85;0.38;;;22.30;30.80;;;;;;5082086;28;20052;-54
2023/03/28 06:10:10;;;;;;;1.20;0.50;;;22.40;30.80;;;;;;5080180;28;20051;-55
2023/03/28 06:12:37;;;;;;;1.25;0.60;;;22.40;30.60;;;;;;5076634;28;20059;-55
2023/03/28 06:15:05;;;;;;;0.40;0.40;;;22.50;30.60;;;;;;5076435;28;20044;-54
2023/03/28 06:17:32;;;;;;;1.40;0.55;;;22.50;31.20;;;;;;5082621;28;20064;-58
2023/03/28 06:20:00;;;;;;;1.90;0.88;;;22.50;30.50;;;;;;5080663;28;20052;-58
2023/03/28 06:22:27;;;;;;;0.52;0.20;;;22.60;30.50;;;;;;5079479;28;20052;-58
2023/03/28 06:24:55;;;;;;;0.50;0.32;;;22.60;30.50;;;;;;5083035;28;20187;-55
2023/03/28 06:27:22;;;;;;;1.55;0.50;;;22.60;30.40;;;;;;5082800;28;20067;-53
2023/03/28 06:29:49;;;;;;;1.52;0.50;;;22.60;30.30;;;;;;5078617;28;20074;-52
2023/03/28 06:32:18;;;;;;;0.85;0.40;;;22.70;30.30;;;;;;5075754;28;20398;-54
2023/03/28 06:34:45;;;;;;;2.83;0.60;;;22.70;30.20;;;;;;5078203;28;20106;-51
2023/03/28 06:37:12;;;;;;;0.63;0.47;;;22.80;30.10;;;;;;5078518;28;20052;-54
2023/03/28 06:39:40;;;;;;;0.68;0.43;;;22.80;30.00;;;;;;5080413;28;20051;-52
2023/03/28 06:42:07;;;;;;;0.60;0.60;;;22.80;30.00;;;;;;5082365;28;20131;-51
2023/03/28 06:44:34;;;;;;;0.20;0.20;;;22.90;30.00;;;;;;5081284;28;20051;-52
2023/03/28 06:47:01;;;;;;;0.95;0.30;;;22.90;29.90;;;;;;5081596;28;20044;-54
2023/03/28 06:49:29;;;;;;;1.55;0.82;;;23.00;29.80;;;;;;5080602;28;20135;-55
2023/03/28 06:51:56;;;;;;;0.90;0.50;;;23.00;29.80;;;;;;5081805;28;20066;-54
2023/03/28 06:54:23;;;;;;;0.15;0.15;;;23.10;29.70;;;;;;5080020;28;20131;-51
2023/03/28 06:56:50;;;;;;;0.88;0.60;;;23.10;29.60;;;;;;5080940;28;20044;-54
2023/03/28 06:59:17;;;;;;;4.93;0.40;;;23.20;29.60;;;;;;5069292;28;20059;-51
2023/03/28 07:01:45;;;;;;;0.60;0.40;;;23.20;29.60;;;;;;5076656;28;20060;-55
2023/03/28 07:04:12;;;;;;;2.33;0.38;;;23.20;29.50;;;;;;5083293;28;20044;-57
2023/03/28 07:06:40;;;;;;;1.23;0.30;;;23.30;29.60;;;;;;5073275;28;20048;-55
2023/03/28 07:09:07;;;;;;;0.20;0.20;;;23.30;29.60;;;;;;5079490;28;21416;-56
2023/03/28 07:11:34;;;;;;;1.25;0.43;;;23.30;29.70;;;;;;5080911;28;20054;-50
2023/03/28 07:14:02;;;;;;;0.70;0.30;;;23.30;23.60;;;;;;5079094;28;20480;-50
2023/03/28 07:16:29;;;;;;;0.52;0.38;;;22.90;22.50;;;;;;5076306;28;20399;-53
2023/03/28 07:18:56;;;;;;;0.88;0.60;;;22.50;23.90;;;;;;5077838;28;20055;-53
2023/03/28 07:21:23;;;;;;;1.95;0.20;;;22.30;25.30;;;;;;5075706;28;20053;-57
2023/03/28 07:23:50;;;;;;;0.50;0.30;;;22.40;26.40;;;;;;5074365;28;20052;-57
2023/03/28 07:26:18;;;;;;;1.65;0.35;;;22.40;27.00;;;;;;5074227;28;20043;-55
2023/03/28 07:28:45;;;;;;;3.17;0.70;;;22.40;27.50;;;;;;5075114;28;20056;-57
2023/03/28 07:31:13;;;;;;;1.33;0.50;;;22.50;28.00;;;;;;5070558;28;20932;-56
2023/03/28 07:33:40;;;;;;;2.13;0.52;;;22.60;28.50;;;;;;5072932;28;20052;-54
2023/03/28 07:36:13;;;;;;;0.95;0.30;;;22.70;28.80;;;;;;5074590;28;20040;-53
2023/03/28 07:38:41;;;;;;;2.20;0.30;;;22.80;29.00;;;;;;5072648;28;20063;-54
2023/03/28 07:41:08;;;;;;;1.17;0.40;;;22.90;29.10;;;;;;5074372;28;20091;-52
2023/03/28 07:43:37;;;;;;;1.50;0.52;;;22.90;29.00;;;;;;5071733;28;22091;-54
2023/03/28 07:46:09;;;;;;;0.70;0.50;;;23.00;29.20;;;;;;5075939;28;20052;-57
2023/03/28 07:48:37;;;;;;;1.73;0.50;;;23.00;29.30;;;;;;5075426;28;20054;-55
2023/03/28 07:51:05;;;;;;;1.60;0.45;;;23.10;29.40;;;;;;5071781;28;20052;-57
2023/03/28 07:53:33;;;;;;;0.82;0.38;;;23.10;29.40;;;;;;5073935;28;20044;-57
2023/03/28 07:56:01;;;;;;;0.95;0.30;;;23.30;29.40;;;;;;5066663;28;20119;-56
2023/03/28 07:58:28;;;;;;;0.45;0.38;;;23.30;29.40;;;;;;5073964;28;20131;-53
2023/03/28 08:01:08;;;;;;;1.98;0.68;;;23.30;29.30;;;;;;5069922;28;20056;-51
2023/03/28 08:03:58;;;;;;;0.82;0.30;;;23.40;29.40;;;;;;5080800;28;20126;-52
2023/03/28 08:06:26;;;;;;;10.32;0.90;;;23.40;29.10;;;;;;5068352;28;20059;-51
2023/03/28 08:08:59;;;;;;;1.20;0.32;;;23.40;29.00;;;;;;5073599;28;20051;-55
2023/03/28 08:11:26;;;;;;;4.22;0.43;;;23.50;29.00;;;;;;5069687;28;21030;-57
2023/03/28 08:13:54;;;;;;;0.40;0.28;;;23.50;29.00;;;;;;5071922;28;20046;-59
2023/03/28 08:16:21;;;;;;;0.70;0.30;;;23.60;29.30;;;;;;5070950;28;20062;-59
2023/03/28 08:18:48;;;;;;;3.40;0.82;;;23.60;28.90;;;;;;5071898;28;20039;-60
2023/03/28 08:21:30;;;;;;;0.68;0.45;;;23.70;28.70;;;;;;5071562;28;20054;-59
2023/03/28 08:23:58;;;;;;;1.73;0.50;;;23.70;28.40;;;;;;5071957;28;20080;-53
2023/03/28 08:26:27;;;;;;;1.10;0.40;;;23.80;28.40;;;;;;5067960;28;20048;-57
2023/03/28 08:28:57;;;;;;;0.80;0.22;;;23.80;28.40;;;;;;5071898;28;20051;-58
2023/03/28 08:31:26;;;;;;;2.10;0.20;;;23.90;28.50;;;;;;5067803;28;20114;-57
2023/03/28 08:33:54;;;;;;;1.13;0.30;;;24.00;28.70;;;;;;5071297;28;20044;-58
2023/03/28 08:36:24;;;;;;;4.18;0.22;;;24.00;28.70;;;;;;5071834;28;20040;-55
2023/03/28 08:38:59;;;;;;;2.08;0.25;;;24.10;28.70;;;;;;5071639;28;20140;-52
2023/03/28 08:41:51;;;;;;;0.40;0.35;;;24.20;28.80;;;;;;5071511;28;20048;-58
2023/03/28 08:44:58;;;;;;;1.70;0.50;;;24.20;28.70;;;;;;5071052;28;20048;-59
2023/03/28 08:47:29;;;;;;;0.75;0.25;;;24.30;28.50;;;;;;5071483;28;20048;-56
2023/03/28 08:50:02;;;;;;;0.52;0.40;;;24.30;28.50;;;;;;5074905;28;20097;-58
2023/03/28 08:52:31;;;;;;;1.85;0.30;;;24.40;28.40;;;;;;5073583;28;20123;-62
2023/03/28 08:55:05;;;;;;;6.85;0.73;;;24.40;28.20;;;;;;5072840;28;20044;-55
2023/03/28 08:57:34;;;;;;;1.33;0.20;;;24.50;28.00;;;;;;5075274;28;20076;-58
2023/03/28 09:00:26;;;;;;;1.40;0.20;;;24.50;27.90;;;;;;5071176;28;20566;-54
2023/03/28 09:02:55;;;;;;;0.47;0.20;;;24.60;27.90;;;;;;5072215;28;20056;-58
2023/03/28 09:05:45;;;;;;;0.43;0.28;;;24.70;27.90;;;;;;5070540;28;20052;-58
2023/03/28 09:08:35;;;;;;;1.38;0.30;;;24.70;28.00;;;;;;5075365;28;20380;-58
2023/03/28 09:11:28;;;;;;;0.57;0.28;;;24.70;28.00;;;;;;5072030;28;20293;-58
2023/03/28 09:14:20;;;;;;;6.65;0.20;;;24.70;27.90;;;;;;5072343;28;20059;-56
2023/03/28 09:17:14;;;;;;;0.80;0.30;;;24.70;27.90;;;;;;5074208;28;20056;-58
2023/03/28 09:20:10;;;;;;;2.05;0.40;;;24.90;27.70;;;;;;5060653;28;20048;-58
2023/03/28 09:23:06;;;;;;;1.10;0.85;;;24.80;27.50;;;;;;5074829;28;20058;-58
2023/03/28 09:26:05;;;;;;;0.73;0.30;;;24.90;27.30;;;;;;5071859;28;20492;-58
2023/03/28 09:28:52;;;;;;;0.93;0.30;;;24.90;27.20;;;;;;5072313;28;20051;-59
2023/03/28 09:31:26;;;;;;;3.72;0.20;;;24.90;27.00;;;;;;5070637;28;20149;-57
2023/03/28 09:33:57;;;;;;;0.40;0.30;;;24.90;26.90;;;;;;5072583;28;20074;-55
2023/03/28 09:36:30;;;;;;;2.38;0.20;;;25.00;26.80;;;;;;5072292;28;20058;-57
2023/03/28 09:39:44;;;;;;;0.50;0.20;;;25.00;26.80;;;;;;5069080;28;20036;-59
2023/03/28 09:42:29;;;;;;;1.13;0.50;;;25.00;26.60;;;;;;5072427;28;20044;-56
2023/03/28 09:45:15;;;;;;;0.52;0.25;;;25.10;26.50;;;;;;5072331;28;20047;-57
2023/03/28 09:47:46;;;;;;;1.08;0.30;;;25.10;26.60;;;;;;5068320;28;20455;-57
2023/03/28 09:50:35;;;;;;;3.53;0.50;;;25.10;26.70;;;;;;5066884;28;20044;-58
2023/03/28 09:53:02;;;;;;;1.88;0.28;;;25.10;26.50;;;;;;5068365;28;20325;-57
2023/03/28 09:55:43;;;;;;;0.75;0.40;;;25.20;26.40;;;;;;5068846;28;20131;-57
2023/03/28 11:55:25;;;;;;;0.20;0.20;;;25.70;25.10;;;;;;5078289;28;20112;-58
2023/03/28 11:58:14;;;;;;;5.68;0.20;;;25.70;25.30;;;;;;5077686;28;20503;-58
2023/03/28 12:01:07;;;;;;;0.32;0.32;;;25.70;25.10;;;;;;5077618;28;20470;-60
2023/03/28 12:04:02;;;;;;;0.15;0.10;;;25.70;25.00;;;;;;5074456;28;20063;-59
2023/03/28 12:06:55;;;;;;;0.45;0.30;;;25.70;25.10;;;;;;5071347;28;20065;-60
2023/03/28 12:10:06;;;;;;;2.03;0.20;;;25.70;25.10;;;;;;5077513;28;20044;-59
2023/03/28 12:13:02;;;;;;;0.30;0.13;;;25.80;25.10;;;;;;5069096;28;20051;-60
2023/03/28 12:16:22;;;;;;;2.55;0.20;;;25.70;25.10;;;;;;5074245;28;20082;-59
2023/03/28 12:18:59;;;;;;;2.05;0.20;;;25.70;25.20;;;;;;5076443;28;20402;-59
2023/03/28 12:21:37;;;;;;;2.42;0.15;;;25.70;25.40;;;;;;5075497;28;20549;-59
2023/03/28 12:24:24;;;;;;;0.90;0.17;;;25.70;25.40;;;;;;5078425;28;20218;-59
2023/03/28 12:31:21;;;;;;;2.40;0.20;;;25.80;25.50;;;;;;5076849;28;20085;-60
2023/03/28 12:41:02;;;;;;;0.43;0.10;;;25.70;26.10;;;;;;5072679;28;20071;-57
2023/03/28 12:44:10;;;;;;;0.57;0.47;;;25.60;26.40;;;;;;5071149;28;20048;-59
2023/03/28 12:46:48;;;;;;;1.05;0.22;;;25.60;26.60;;;;;;5071840;28;20138;-58
2023/03/28 12:49:36;;;;;;;0.63;0.35;;;25.60;26.70;;;;;;5071348;28;20534;-57
2023/03/28 12:52:06;;;;;;;1.10;0.30;;;25.70;26.80;;;;;;5067202;28;20496;-57
2023/03/28 12:54:51;;;;;;;0.22;0.17;;;25.70;26.80;;;;;;5073578;28;20037;-53
2023/03/28 12:57:42;;;;;;;0.40;0.10;;;25.70;26.80;;;;;;5073615;28;20066;-58
2023/03/28 13:00:36;;;;;;;0.15;0.10;;;25.70;27.10;;;;;;5072792;28;20728;-59
2023/03/28 13:03:40;;;;;;;1.13;0.20;;;25.70;26.60;;;;;;5075614;28;20556;-59
2023/03/28 13:06:32;;;;;;;1.73;0.10;;;25.70;26.80;;;;;;5076201;28;20121;-58
2023/03/28 13:09:34;;;;;;;0.85;0.60;;;25.70;26.90;;;;;;5076952;28;20477;-57
2023/03/28 13:12:48;;;;;;;2.03;0.10;;;25.70;27.00;;;;;;5074581;28;20047;-58
2023/03/28 13:15:30;;;;;;;0.22;0.10;;;25.70;27.00;;;;;;5075781;28;20801;-55
2023/03/28 13:18:24;;;;;;;2.70;0.15;;;25.70;27.00;;;;;;5076225;28;20048;-59
2023/03/28 13:20:52;;;;;;;0.30;0.30;;;25.70;27.10;;;;;;5074969;28;20063;-57
2023/03/28 13:23:29;;;;;;;0.57;0.35;;;25.80;27.10;;;;;;5071680;28;20063;-58
2023/03/28 13:26:23;;;;;;;2.08;0.20;;;25.80;27.10;;;;;;5077716;28;20237;-58
2023/03/28 13:28:59;;;;;;;1.73;0.15;;;25.80;27.10;;;;;;5072265;28;20415;-59
2023/03/28 13:36:06;;;;;;;2.15;0.28;;;25.80;27.00;;;;;;5076403;28;20063;-58
2023/03/28 13:38:46;;;;;;;0.38;0.20;;;25.80;27.00;;;;;;5076675;28;20055;-54
2023/03/28 13:42:07;;;;;;;2.13;0.10;;;25.80;26.90;;;;;;5074963;28;20143;-53
2023/03/28 13:44:54;;;;;;;0.70;0.30;;;25.70;26.70;;;;;;5079068;28;20051;-55
2023/03/28 13:47:34;;;;;;;1.45;0.20;;;25.70;26.60;;;;;;5077860;28;20403;-54
2023/03/28 13:50:25;;;;;;;0.13;0.10;;;25.70;26.60;;;;;;5076595;28;20056;-56
2023/03/28 14:04:28;;;;;;;1.65;0.10;;;25.70;26.50;;;;;;5073505;28;20396;-59
2023/03/28 14:07:12;;;;;;;3.40;0.20;;;25.70;26.50;;;;;;5073852;28;20047;-60
2023/03/28 14:09:39;;;;;;;0.17;0.15;;;25.70;26.70;;;;;;5077144;28;20056;-59
2023/03/28 14:12:13;;;;;;;0.90;0.68;;;25.70;26.80;;;;;;5075464;28;20542;-60
2023/03/28 14:14:48;;;;;;;0.20;0.10;;;25.60;27.00;;;;;;5078859;28;20044;-59
2023/03/28 14:17:20;;;;;;;0.20;0.15;;;25.60;27.20;;;;;;5071694;28;20080;-56
2023/03/28 14:19:52;;;;;;;0.20;0.10;;;25.50;27.10;;;;;;5074184;28;20048;-58
2023/03/28 14:22:23;;;;;;;1.40;0.30;;;25.50;27.10;;;;;;5076712;28;20043;-58
2023/03/28 14:24:53;;;;;;;2.22;0.47;;;25.50;27.10;;;;;;5077773;28;20048;-58
2023/03/28 14:27:40;;;;;;;;;;;25.40;27.30;;;;;;5077855;28;20055;-58
2023/03/28 14:30:42;;;;;;;0.25;0.13;;;25.40;27.20;;;;;;5071816;28;19928;-59
2023/03/28 14:33:23;;;;;;;2.60;0.20;;;25.40;27.20;;;;;;5076033;28;20690;-59
2023/03/28 14:36:10;;;;;;;0.75;0.20;;;25.40;27.30;;;;;;5071953;28;20066;-58
2023/03/28 14:38:38;;;;;;;2.08;0.20;;;25.30;27.20;;;;;;5073063;28;20048;-58
2023/03/28 14:41:19;;;;;;;0.10;0.10;;;25.30;27.20;;;;;;5081211;28;20143;-58
2023/03/28 14:43:51;;;;;;;0.80;0.20;;;25.20;27.20;;;;;;5078476;28;20037;-58
2023/03/28 14:46:28;;;;;;;0.43;0.10;;;25.20;27.20;;;;;;5085801;28;20043;-59
2023/03/28 14:48:58;;;;;;;3.92;0.40;;;25.20;27.10;;;;;;5076613;28;20075;-58
2023/03/28 14:51:27;;;;;;;2.95;0.25;;;25.10;27.20;;;;;;5074208;28;20074;-59
2023/03/28 14:53:55;;;;;;;2.70;0.20;;;25.10;27.20;;;;;;5070020;28;20052;-59
2023/03/28 14:56:25;;;;;;;1.45;0.47;;;25.00;27.10;;;;;;5080884;28;20037;-59
2023/03/28 14:58:59;;;;;;;0.63;0.40;;;25.00;27.20;;;;;;5083320;28;20073;-59
2023/03/28 15:01:39;;;;;;;2.35;0.25;;;25.00;27.30;;;;;;5074851;28;20056;-59
2023/03/28 15:04:09;;;;;;;0.80;0.20;;;24.90;27.40;;;;;;5077286;28;20048;-59
2023/03/28 15:06:38;;;;;;;3.40;0.40;;;24.90;27.40;;;;;;5085461;28;20051;-60
2023/03/28 15:09:21;;;;;;;0.50;0.30;;;24.90;27.60;;;;;;5069075;28;20563;-59
2023/03/28 15:11:48;;;;;;;4.75;0.32;;;24.80;27.90;;;;;;5079949;28;20047;-58
2023/03/28 15:14:26;;;;;;;5.10;0.57;;;24.80;28.00;;;;;;5084307;28;20143;-59
2023/03/28 15:16:54;;;;;;;0.85;0.47;;;24.80;28.30;;;;;;5088631;28;20055;-57
2023/03/28 15:19:27;;;;;;;0.70;0.35;;;24.80;28.50;;;;;;5075983;28;20516;-57
2023/03/28 15:21:59;;;;;;;2.47;0.50;;;24.80;29.00;;;;;;5069872;28;20060;-58
2023/03/28 15:24:27;;;;;;;1.65;0.50;;;24.70;29.10;;;;;;5080117;28;20056;-55
2023/03/28 15:27:00;;;;;;;5.00;0.70;;;24.70;29.10;;;;;;5074250;28;20067;-58
2023/03/28 15:29:32;;;;;;;1.40;0.30;;;24.70;29.40;;;;;;5074818;28;20151;-53
2023/03/28 15:32:15;;;;;;;1.60;1.15;;;24.70;29.60;;;;;;5069582;28;20056;-51
2023/03/28 15:34:53;;;;;;;1.35;0.57;;;24.70;29.40;;;;;;5086120;28;20050;-55
2023/03/28 15:37:23;;;;;;;0.95;0.40;;;24.70;28.70;;;;;;5086208;28;20054;-52
2023/03/28 15:39:51;;;;;;;5.00;0.70;;;24.70;28.30;;;;;;5080643;28;20082;-52
2023/03/28 15:42:33;;;;;;;1.27;0.32;;;24.70;28.50;;;;;;5082543;28;21068;-54
2023/03/28 15:45:23;;;;;;;2.00;0.30;;;24.60;28.40;;;;;;5072769;28;20066;-55
2023/03/28 15:47:54;;;;;;;2.30;0.40;;;24.70;28.40;;;;;;5089547;28;20499;-53
2023/03/28 15:50:29;;;;;;;3.35;0.32;;;24.60;28.10;;;;;;5084599;28;20320;-56
2023/03/28 15:52:59;;;;;;;0.82;0.40;;;24.60;27.90;;;;;;5078385;28;20053;-54